createdAt,value
2023-02-25T00:00:31.384Z,89.27
2023-02-25T00:01:31.372Z,89.17
2023-02-25T00:02:31.408Z,88.92
2023-02-25T00:03:31.382Z,88.71
2023-02-25T00:04:31.341Z,88.75
2023-02-25T00:05:32.074Z,88.75
2023-02-25T00:06:31.316Z,88.86
2023-02-25T00:07:31.291Z,89.02
2023-02-25T00:08:31.278Z,89.17
2023-02-25T00:09:31.283Z,89.37
2023-02-25T00:11:31.235Z,89.89
2023-02-25T00:12:31.672Z,89.99
2023-02-25T00:13:31.221Z,90.20
2023-02-25T00:14:31.198Z,90.10
2023-02-25T00:15:31.202Z,90.30
2023-02-25T00:16:31.180Z,90.30
2023-02-25T00:17:31.155Z,90.41
2023-02-25T00:18:31.242Z,90.61
2023-02-25T00:19:31.133Z,90.41
2023-02-25T00:20:31.125Z,90.72
2023-02-25T00:21:31.102Z,91.24
2023-02-25T00:22:31.104Z,91.18
2023-02-25T00:23:31.076Z,91.69
2023-02-25T00:24:31.063Z,92.21
2023-02-25T00:25:31.053Z,92.32
2023-02-25T00:26:31.039Z,92.42
2023-02-25T00:27:31.029Z,92.73
2023-02-25T00:28:31.043Z,92.57
2023-02-25T00:29:31.002Z,92.63
2023-02-25T00:30:30.991Z,92.73
2023-02-25T00:31:31.123Z,92.93
2023-02-25T00:32:31.008Z,93.04
2023-02-25T00:33:30.956Z,92.93
2023-02-25T00:34:30.941Z,92.52
2023-02-25T00:35:30.928Z,92.52
2023-02-25T00:36:30.918Z,92.63
2023-02-25T00:37:30.905Z,92.63
2023-02-25T00:38:30.906Z,92.52
2023-02-25T00:39:30.917Z,92.32
2023-02-25T00:40:30.867Z,92.32
2023-02-25T00:41:30.934Z,92.21
2023-02-25T00:42:30.847Z,92.11
2023-02-25T00:43:30.863Z,91.69
2023-02-25T00:44:30.842Z,91.59
2023-02-25T00:45:30.806Z,91.49
2023-02-25T00:46:30.869Z,91.38
2023-02-25T00:47:30.781Z,91.59
2023-02-25T00:48:30.772Z,91.49
2023-02-25T00:49:32.698Z,91.28
2023-02-25T00:50:30.746Z,91.38
2023-02-25T00:51:30.740Z,91.24
2023-02-25T00:52:30.729Z,90.97
2023-02-25T00:53:30.705Z,91.07
2023-02-25T00:54:30.698Z,90.86
2023-02-25T00:55:30.680Z,90.66
2023-02-25T00:56:30.675Z,90.55
2023-02-25T00:57:30.654Z,90.30
2023-02-25T00:58:30.641Z,90.24
2023-02-25T00:59:30.629Z,89.89
2023-02-25T01:00:35.885Z,89.99
2023-02-25T01:01:32.628Z,89.89
2023-02-25T01:02:30.637Z,89.89
2023-02-25T01:03:30.578Z,89.89
2023-02-25T01:04:30.569Z,89.78
2023-02-25T01:05:30.548Z,89.89
2023-02-25T01:06:30.539Z,89.68
2023-02-25T01:07:30.525Z,89.58
2023-02-25T01:08:30.524Z,89.78
2023-02-25T01:09:30.496Z,89.89
2023-02-25T01:10:30.483Z,89.37
2023-02-25T01:11:30.490Z,89.48
2023-02-25T01:12:30.456Z,89.06
2023-02-25T01:13:30.490Z,88.86
2023-02-25T01:14:30.427Z,89.06
2023-02-25T01:15:30.410Z,88.96
2023-02-25T01:16:30.586Z,89.06
2023-02-25T01:17:30.388Z,88.86
2023-02-25T01:18:30.374Z,88.44
2023-02-25T01:19:30.359Z,88.34
2023-02-25T01:20:30.345Z,88.23
2023-02-25T01:21:30.352Z,88.34
2023-02-25T01:22:30.319Z,88.03
2023-02-25T01:23:30.314Z,88.09
2023-02-25T01:24:30.291Z,87.82
2023-02-25T01:25:30.277Z,87.71
2023-02-25T01:26:30.311Z,87.82
2023-02-25T01:27:30.250Z,87.92
2023-02-25T01:28:30.238Z,87.71
2023-02-25T01:29:30.228Z,87.40
2023-02-25T01:30:30.206Z,87.92
2023-02-25T01:31:30.393Z,87.30
2023-02-25T01:32:30.464Z,87.20
2023-02-25T01:33:30.171Z,87.20
2023-02-25T01:34:30.161Z,87.20
2023-02-25T01:35:30.163Z,87.61
2023-02-25T01:36:30.129Z,87.20
2023-02-25T01:37:30.124Z,87.20
2023-02-25T01:38:30.107Z,86.78
2023-02-25T01:39:30.100Z,86.99
2023-02-25T01:40:30.129Z,86.57
2023-02-25T01:41:30.078Z,86.68
2023-02-25T01:42:30.050Z,86.88
2023-02-25T01:43:30.035Z,87.09
2023-02-25T01:44:30.026Z,87.40
2023-02-25T01:45:30.039Z,87.20
2023-02-25T01:46:30.037Z,86.78
2023-02-25T01:47:29.984Z,86.47
2023-02-25T01:48:30.040Z,86.33
2023-02-25T01:49:29.970Z,86.37
2023-02-25T01:50:30.035Z,86.43
2023-02-25T01:51:29.932Z,86.37
2023-02-25T01:52:29.919Z,86.85
2023-02-25T01:53:29.920Z,86.85
2023-02-25T01:54:29.897Z,86.57
2023-02-25T01:55:29.978Z,86.78
2023-02-25T01:56:29.863Z,87.09
2023-02-25T01:57:29.854Z,86.78
2023-02-25T01:58:29.838Z,86.88
2023-02-25T01:59:29.820Z,86.88
2023-02-25T02:00:30.001Z,86.88
2023-02-25T02:01:29.800Z,86.99
2023-02-25T02:02:29.899Z,86.88
2023-02-25T02:03:29.770Z,86.78
2023-02-25T02:04:29.789Z,86.37
2023-02-25T02:05:29.766Z,86.47
2023-02-25T02:06:29.733Z,86.37
2023-02-25T02:07:29.734Z,86.57
2023-02-25T02:08:29.704Z,86.37
2023-02-25T02:09:29.685Z,86.37
2023-02-25T02:10:29.756Z,86.26
2023-02-25T02:11:29.669Z,86.37
2023-02-25T02:12:29.655Z,86.57
2023-02-25T02:13:29.653Z,86.57
2023-02-25T02:14:29.626Z,86.16
2023-02-25T02:15:29.695Z,86.06
2023-02-25T02:16:29.626Z,85.65
2023-02-25T02:17:30.436Z,85.75
2023-02-25T02:18:29.572Z,85.96
2023-02-25T02:19:29.557Z,86.16
2023-02-25T02:20:29.571Z,85.96
2023-02-25T02:21:29.529Z,86.26
2023-02-25T02:22:29.522Z,86.47
2023-02-25T02:23:29.503Z,86.16
2023-02-25T02:24:29.489Z,85.96
2023-02-25T02:25:29.614Z,85.96
2023-02-25T02:26:29.464Z,86.26
2023-02-25T02:27:29.450Z,86.57
2023-02-25T02:28:29.438Z,86.68
2023-02-25T02:29:29.422Z,86.16
2023-02-25T02:30:29.459Z,86.16
2023-02-25T02:31:29.407Z,86.37
2023-02-25T02:32:29.484Z,86.26
2023-02-25T02:33:29.380Z,86.16
2023-02-25T02:34:29.391Z,86.06
2023-02-25T02:35:29.417Z,85.89
2023-02-25T02:36:29.351Z,85.65
2023-02-25T02:37:29.314Z,85.54
2023-02-25T02:38:29.300Z,85.75
2023-02-25T02:39:29.287Z,85.85
2023-02-25T02:40:29.275Z,85.65
2023-02-25T02:41:29.260Z,85.44
2023-02-25T02:42:29.247Z,85.85
2023-02-25T02:43:29.235Z,86.06
2023-02-25T02:44:29.221Z,86.41
2023-02-25T02:45:29.258Z,86.51
2023-02-25T02:46:29.194Z,86.51
2023-02-25T02:47:29.177Z,86.30
2023-02-25T02:48:29.183Z,85.96
2023-02-25T02:49:29.149Z,85.58
2023-02-25T02:50:29.140Z,85.47
2023-02-25T02:51:29.125Z,85.85
2023-02-25T02:52:29.138Z,85.79
2023-02-25T02:53:29.095Z,86.20
2023-02-25T02:54:29.089Z,86.20
2023-02-25T02:55:29.070Z,86.10
2023-02-25T02:56:29.054Z,86.26
2023-02-25T02:57:29.043Z,86.20
2023-02-25T02:58:29.030Z,86.51
2023-02-25T02:59:29.115Z,86.72
2023-02-25T03:00:29.014Z,86.41
2023-02-25T03:01:29.108Z,86.51
2023-02-25T03:02:28.977Z,86.82
2023-02-25T03:03:28.960Z,86.30
2023-02-25T03:04:28.947Z,85.58
2023-02-25T03:05:28.937Z,85.58
2023-02-25T03:06:28.933Z,85.54
2023-02-25T03:07:28.912Z,85.13
2023-02-25T03:08:28.924Z,85.33
2023-02-25T03:09:28.878Z,85.16
2023-02-25T03:10:28.863Z,85.37
2023-02-25T03:11:28.849Z,85.65
2023-02-25T03:12:28.837Z,85.99
2023-02-25T03:13:28.826Z,85.47
2023-02-25T03:14:28.819Z,85.99
2023-02-25T03:15:28.794Z,85.89
2023-02-25T03:16:28.862Z,85.37
2023-02-25T03:17:28.768Z,85.23
2023-02-25T03:18:28.758Z,85.27
2023-02-25T03:19:28.747Z,85.16
2023-02-25T03:20:28.732Z,85.47
2023-02-25T03:21:28.719Z,85.58
2023-02-25T03:22:28.707Z,85.58
2023-02-25T03:23:28.690Z,85.33
2023-02-25T03:24:28.707Z,85.27
2023-02-25T03:25:28.665Z,85.37
2023-02-25T03:26:28.663Z,85.06
2023-02-25T03:27:28.638Z,85.47
2023-02-25T03:28:28.627Z,85.89
2023-02-25T03:29:28.648Z,85.58
2023-02-25T03:30:28.650Z,85.58
2023-02-25T03:31:28.661Z,85.47
2023-02-25T03:32:28.908Z,85.47
2023-02-25T03:33:28.565Z,85.27
2023-02-25T03:34:28.551Z,85.37
2023-02-25T03:35:28.535Z,85.37
2023-02-25T03:36:28.525Z,85.37
2023-02-25T03:37:28.512Z,85.58
2023-02-25T03:38:28.498Z,85.68
2023-02-25T03:39:28.486Z,85.68
2023-02-25T03:40:28.497Z,86.10
2023-02-25T03:41:28.458Z,86.30
2023-02-25T03:42:28.447Z,86.51
2023-02-25T03:43:28.433Z,86.41
2023-02-25T03:44:28.420Z,86.72
2023-02-25T03:45:28.409Z,87.03
2023-02-25T03:46:28.504Z,87.24
2023-02-25T03:47:28.381Z,87.65
2023-02-25T03:48:28.367Z,88.07
2023-02-25T03:49:28.351Z,87.86
2023-02-25T03:50:28.351Z,88.21
2023-02-25T03:51:28.327Z,88.21
2023-02-25T03:52:28.313Z,88.21
2023-02-25T03:53:28.298Z,88.21
2023-02-25T03:54:28.293Z,88.00
2023-02-25T03:55:28.268Z,87.96
2023-02-25T03:56:28.277Z,87.86
2023-02-25T03:57:28.240Z,88.07
2023-02-25T03:58:28.232Z,88.31
2023-02-25T03:59:28.212Z,88.21
2023-02-25T04:00:28.203Z,88.11
2023-02-25T04:01:28.202Z,88.11
2023-02-25T04:02:28.234Z,88.21
2023-02-25T04:03:28.156Z,88.52
2023-02-25T04:04:28.210Z,88.73
2023-02-25T04:05:28.129Z,88.73
2023-02-25T04:06:28.120Z,88.73
2023-02-25T04:07:28.100Z,88.73
2023-02-25T04:08:28.089Z,88.62
2023-02-25T04:09:28.074Z,88.62
2023-02-25T04:10:28.061Z,88.62
2023-02-25T04:11:28.052Z,88.73
2023-02-25T04:12:28.066Z,88.73
2023-02-25T04:13:28.021Z,88.83
2023-02-25T04:14:28.010Z,88.62
2023-02-25T04:15:28.062Z,88.73
2023-02-25T04:16:27.984Z,88.94
2023-02-25T04:17:27.965Z,88.94
2023-02-25T04:18:27.957Z,88.83
2023-02-25T04:19:27.945Z,88.83
2023-02-25T04:20:27.935Z,89.14
2023-02-25T04:21:27.913Z,89.04
2023-02-25T04:22:27.904Z,88.73
2023-02-25T04:23:27.884Z,88.94
2023-02-25T04:24:27.873Z,88.77
2023-02-25T04:25:27.858Z,88.67
2023-02-25T04:26:27.850Z,88.67
2023-02-25T04:27:27.834Z,88.87
2023-02-25T04:28:27.849Z,88.46
2023-02-25T04:29:27.805Z,88.25
2023-02-25T04:30:27.834Z,88.25
2023-02-25T04:31:27.947Z,88.15
2023-02-25T04:32:27.910Z,88.04
2023-02-25T04:33:27.756Z,87.94
2023-02-25T04:34:27.757Z,88.04
2023-02-25T04:35:27.731Z,88.04
2023-02-25T04:36:27.717Z,88.77
2023-02-25T04:37:27.707Z,88.98
2023-02-25T04:38:27.692Z,89.39
2023-02-25T04:39:27.680Z,89.85
2023-02-25T04:40:27.675Z,90.06
2023-02-25T04:41:27.653Z,90.06
2023-02-25T04:42:27.639Z,89.85
2023-02-25T04:43:27.629Z,89.85
2023-02-25T04:44:27.637Z,89.85
2023-02-25T04:45:27.602Z,89.75
2023-02-25T04:46:27.701Z,89.85
2023-02-25T04:47:27.581Z,89.95
2023-02-25T04:48:27.563Z,89.85
2023-02-25T04:49:27.551Z,89.95
2023-02-25T04:50:27.550Z,89.95
2023-02-25T04:51:27.525Z,90.12
2023-02-25T04:52:27.511Z,89.70
2023-02-25T04:53:27.498Z,89.29
2023-02-25T04:54:27.486Z,89.29
2023-02-25T04:55:27.474Z,89.39
2023-02-25T04:56:27.462Z,89.39
2023-02-25T04:57:27.446Z,89.19
2023-02-25T04:58:27.432Z,88.87
2023-02-25T04:59:27.418Z,89.08
2023-02-25T05:00:27.434Z,89.19
2023-02-25T05:01:27.450Z,89.29
2023-02-25T05:02:27.378Z,88.94
2023-02-25T05:03:27.366Z,88.87
2023-02-25T05:04:27.434Z,88.94
2023-02-25T05:05:27.344Z,88.56
2023-02-25T05:06:27.331Z,88.36
2023-02-25T05:07:27.314Z,88.25
2023-02-25T05:08:27.301Z,88.21
2023-02-25T05:09:27.288Z,88.42
2023-02-25T05:10:27.303Z,88.11
2023-02-25T05:11:27.278Z,88.11
2023-02-25T05:12:27.248Z,88.00
2023-02-25T05:13:27.238Z,88.11
2023-02-25T05:14:27.224Z,88.11
2023-02-25T05:15:27.208Z,88.00
2023-02-25T05:16:27.561Z,88.21
2023-02-25T05:17:27.184Z,88.42
2023-02-25T05:18:27.198Z,88.21
2023-02-25T05:19:27.169Z,88.42
2023-02-25T05:20:27.255Z,88.42
2023-02-25T05:21:27.133Z,88.11
2023-02-25T05:22:27.124Z,87.90
2023-02-25T05:23:27.103Z,87.90
2023-02-25T05:24:27.086Z,87.79
2023-02-25T05:25:27.075Z,88.00
2023-02-25T05:26:27.070Z,88.00
2023-02-25T05:27:27.052Z,87.90
2023-02-25T05:28:27.031Z,88.00
2023-02-25T05:29:27.049Z,88.11
2023-02-25T05:30:27.007Z,87.79
2023-02-25T05:31:27.117Z,87.45
2023-02-25T05:32:27.107Z,87.13
2023-02-25T05:33:26.970Z,87.28
2023-02-25T05:34:26.951Z,87.24
2023-02-25T05:35:26.941Z,87.24
2023-02-25T05:36:28.467Z,87.28
2023-02-25T05:37:26.915Z,87.38
2023-02-25T05:38:26.896Z,87.45
2023-02-25T05:39:26.894Z,87.34
2023-02-25T05:40:26.870Z,87.28
2023-02-25T05:41:26.857Z,87.13
2023-02-25T05:42:26.846Z,87.13
2023-02-25T05:43:26.838Z,87.07
2023-02-25T05:44:26.819Z,86.96
2023-02-25T05:45:26.810Z,87.03
2023-02-25T05:46:27.313Z,87.34
2023-02-25T05:47:26.777Z,86.72
2023-02-25T05:48:26.788Z,87.34
2023-02-25T05:49:26.748Z,87.24
2023-02-25T05:50:26.746Z,87.13
2023-02-25T05:51:26.737Z,87.13
2023-02-25T05:52:26.720Z,87.03
2023-02-25T05:53:26.697Z,87.13
2023-02-25T05:54:26.683Z,87.24
2023-02-25T05:55:26.678Z,87.24
2023-02-25T05:56:27.339Z,87.24
2023-02-25T05:57:26.655Z,87.13
2023-02-25T05:58:26.622Z,87.45
2023-02-25T05:59:26.640Z,87.55
2023-02-25T06:00:26.603Z,87.34
2023-02-25T06:01:26.586Z,87.38
2023-02-25T06:02:26.701Z,87.59
2023-02-25T06:03:26.577Z,87.69
2023-02-25T06:04:26.571Z,87.79
2023-02-25T06:05:26.534Z,87.69
2023-02-25T06:06:26.516Z,87.69
2023-02-25T06:07:26.505Z,87.59
2023-02-25T06:08:26.494Z,87.59
2023-02-25T06:09:26.479Z,87.79
2023-02-25T06:10:26.462Z,87.69
2023-02-25T06:11:26.449Z,87.59
2023-02-25T06:12:26.437Z,87.69
2023-02-25T06:13:26.422Z,87.55
2023-02-25T06:14:26.410Z,87.79
2023-02-25T06:15:26.398Z,87.45
2023-02-25T06:16:26.868Z,87.86
2023-02-25T06:17:26.375Z,87.90
2023-02-25T06:18:26.359Z,87.96
2023-02-25T06:19:26.386Z,88.07
2023-02-25T06:20:26.354Z,88.00
2023-02-25T06:21:26.315Z,88.31
2023-02-25T06:22:26.307Z,88.21
2023-02-25T06:23:26.291Z,88.28
2023-02-25T06:24:26.275Z,88.17
2023-02-25T06:25:26.263Z,88.00
2023-02-25T06:26:26.434Z,88.42
2023-02-25T06:27:26.235Z,88.62
2023-02-25T06:28:26.224Z,88.42
2023-02-25T06:29:26.210Z,88.21
2023-02-25T06:30:26.220Z,88.31
2023-02-25T06:31:26.206Z,88.42
2023-02-25T06:32:26.330Z,88.83
2023-02-25T06:33:26.162Z,88.58
2023-02-25T06:34:26.141Z,88.31
2023-02-25T06:35:26.132Z,88.38
2023-02-25T06:36:26.698Z,88.28
2023-02-25T06:37:26.103Z,88.00
2023-02-25T06:38:26.164Z,88.11
2023-02-25T06:39:26.083Z,88.31
2023-02-25T06:40:26.064Z,88.52
2023-02-25T06:41:26.049Z,88.48
2023-02-25T06:42:26.040Z,88.28
2023-02-25T06:43:26.024Z,88.21
2023-02-25T06:44:26.008Z,88.38
2023-02-25T06:45:25.995Z,88.17
2023-02-25T06:46:26.618Z,88.07
2023-02-25T06:47:25.967Z,87.96
2023-02-25T06:48:25.956Z,87.76
2023-02-25T06:49:25.952Z,87.76
2023-02-25T06:50:25.929Z,87.76
2023-02-25T06:51:25.922Z,87.76
2023-02-25T06:52:25.937Z,87.86
2023-02-25T06:53:25.888Z,87.86
2023-02-25T06:54:25.875Z,88.38
2023-02-25T06:55:25.868Z,88.28
2023-02-25T06:56:26.253Z,88.23
2023-02-25T06:57:25.837Z,88.28
2023-02-25T06:58:25.820Z,88.58
2023-02-25T06:59:25.822Z,88.89
2023-02-25T07:00:25.850Z,89.45
2023-02-25T07:01:25.934Z,89.56
2023-02-25T07:02:25.811Z,89.87
2023-02-25T07:03:25.782Z,90.39
2023-02-25T07:04:25.875Z,90.60
2023-02-25T07:05:25.830Z,90.53
2023-02-25T07:06:25.723Z,90.60
2023-02-25T07:08:25.732Z,90.49
2023-02-25T07:09:25.673Z,90.18
2023-02-25T07:10:25.659Z,90.39
2023-02-25T07:11:25.646Z,90.70
2023-02-25T07:12:25.634Z,90.60
2023-02-25T07:13:25.624Z,90.60
2023-02-25T07:14:25.607Z,90.60
2023-02-25T07:15:25.599Z,90.39
2023-02-25T07:16:25.831Z,90.43
2023-02-25T07:17:25.566Z,90.60
2023-02-25T07:18:25.553Z,90.18
2023-02-25T07:19:25.553Z,90.08
2023-02-25T07:20:25.529Z,90.39
2023-02-25T07:21:25.513Z,90.39
2023-02-25T07:22:25.499Z,90.39
2023-02-25T07:23:25.487Z,90.39
2023-02-25T07:24:25.497Z,90.49
2023-02-25T07:25:25.496Z,90.60
2023-02-25T07:26:25.677Z,90.70
2023-02-25T07:27:25.432Z,90.60
2023-02-25T07:28:25.423Z,90.60
2023-02-25T07:29:25.405Z,90.39
2023-02-25T07:30:25.389Z,90.08
2023-02-25T07:31:25.877Z,89.66
2023-02-25T07:32:25.578Z,89.87
2023-02-25T07:33:25.350Z,89.66
2023-02-25T07:34:25.336Z,89.45
2023-02-25T07:35:25.336Z,89.31
2023-02-25T07:36:25.313Z,89.52
2023-02-25T07:37:25.298Z,89.72
2023-02-25T07:38:25.291Z,89.31
2023-02-25T07:39:25.278Z,89.52
2023-02-25T07:40:25.280Z,89.31
2023-02-25T07:41:25.506Z,89.31
2023-02-25T07:42:25.228Z,89.72
2023-02-25T07:43:25.230Z,89.93
2023-02-25T07:44:25.205Z,89.62
2023-02-25T07:45:25.191Z,89.37
2023-02-25T07:46:25.243Z,89.31
2023-02-25T07:47:25.163Z,89.52
2023-02-25T07:48:25.151Z,89.52
2023-02-25T07:49:25.143Z,89.20
2023-02-25T07:50:25.122Z,89.58
2023-02-25T07:51:25.458Z,89.37
2023-02-25T07:52:25.096Z,88.86
2023-02-25T07:53:25.085Z,88.89
2023-02-25T07:54:25.071Z,88.69
2023-02-25T07:55:25.059Z,88.48
2023-02-25T07:56:25.077Z,88.58
2023-02-25T07:57:25.035Z,88.17
2023-02-25T07:58:25.019Z,88.17
2023-02-25T07:59:25.010Z,87.92
2023-02-25T08:00:24.997Z,88.03
2023-02-25T08:01:25.411Z,88.13
2023-02-25T08:02:25.040Z,88.03
2023-02-25T08:03:24.957Z,87.82
2023-02-25T08:04:25.008Z,87.20
2023-02-25T08:05:24.925Z,87.20
2023-02-25T08:06:24.914Z,87.61
2023-02-25T08:07:26.656Z,87.20
2023-02-25T08:08:24.886Z,86.88
2023-02-25T08:09:24.874Z,86.99
2023-02-25T08:10:24.858Z,86.88
2023-02-25T08:11:25.426Z,86.88
2023-02-25T08:12:24.863Z,86.78
2023-02-25T08:13:24.823Z,86.99
2023-02-25T08:14:24.823Z,86.88
2023-02-25T08:15:24.799Z,86.99
2023-02-25T08:16:24.793Z,87.20
2023-02-25T08:17:24.774Z,87.20
2023-02-25T08:18:24.757Z,87.45
2023-02-25T08:19:24.749Z,87.55
2023-02-25T08:20:24.742Z,87.92
2023-02-25T08:21:25.151Z,87.92
2023-02-25T08:22:24.724Z,88.13
2023-02-25T08:23:24.697Z,87.92
2023-02-25T08:24:24.679Z,87.61
2023-02-25T08:25:24.673Z,87.82
2023-02-25T08:26:24.655Z,87.09
2023-02-25T08:27:24.645Z,87.09
2023-02-25T08:28:24.652Z,86.68
2023-02-25T08:29:24.614Z,86.88
2023-02-25T08:30:24.620Z,86.85
2023-02-25T08:31:25.061Z,86.47
2023-02-25T08:32:24.723Z,86.74
2023-02-25T08:33:24.567Z,86.39
2023-02-25T08:34:24.553Z,86.18
2023-02-25T08:35:24.538Z,86.09
2023-02-25T08:36:24.533Z,86.39
2023-02-25T08:37:24.516Z,85.67
2023-02-25T08:38:24.510Z,85.77
2023-02-25T08:39:24.489Z,85.36
2023-02-25T08:40:24.475Z,84.98
2023-02-25T08:41:24.676Z,85.36
2023-02-25T08:42:24.500Z,85.05
2023-02-25T08:43:24.437Z,85.26
2023-02-25T08:44:24.447Z,85.15
2023-02-25T08:45:24.411Z,84.84
2023-02-25T08:46:24.431Z,83.91
2023-02-25T08:47:24.391Z,84.26
2023-02-25T08:48:24.373Z,84.53
2023-02-25T08:49:24.361Z,84.84
2023-02-25T08:50:24.344Z,84.11
2023-02-25T08:51:24.661Z,83.91
2023-02-25T08:52:24.320Z,83.39
2023-02-25T08:53:24.303Z,83.81
2023-02-25T08:54:24.293Z,83.81
2023-02-25T08:55:24.275Z,83.87
2023-02-25T08:56:24.265Z,83.35
2023-02-25T08:57:24.249Z,83.77
2023-02-25T08:58:24.248Z,83.42
2023-02-25T08:59:24.222Z,83.11
2023-02-25T09:00:24.235Z,82.90
2023-02-25T09:01:24.616Z,82.49
2023-02-25T09:02:24.198Z,81.87
2023-02-25T09:03:24.169Z,81.87
2023-02-25T09:04:24.252Z,81.18
2023-02-25T09:05:24.148Z,81.87
2023-02-25T09:06:24.142Z,81.25
2023-02-25T09:07:24.119Z,80.84
2023-02-25T09:08:24.107Z,80.73
2023-02-25T09:09:24.092Z,80.84
2023-02-25T09:10:24.140Z,81.56
2023-02-25T09:11:24.420Z,81.87
2023-02-25T09:12:24.893Z,81.25
2023-02-25T09:13:24.039Z,81.25
2023-02-25T09:14:24.026Z,81.14
2023-02-25T09:15:24.016Z,81.35
2023-02-25T09:16:24.089Z,80.59
2023-02-25T09:17:23.987Z,80.76
2023-02-25T09:18:23.975Z,79.58
2023-02-25T09:19:23.960Z,78.49
2023-02-25T09:20:23.993Z,78.80
2023-02-25T09:21:24.299Z,79.35
2023-02-25T09:22:23.925Z,79.83
2023-02-25T09:23:23.916Z,79.62
2023-02-25T09:24:23.907Z,78.83
2023-02-25T09:25:23.886Z,77.38
2023-02-25T09:26:23.873Z,76.97
2023-02-25T09:28:24.649Z,77.45
2023-02-25T09:29:23.831Z,76.83
2023-02-25T09:30:23.949Z,76.87
2023-02-25T09:31:24.257Z,77.04
2023-02-25T09:32:23.960Z,78.38
2023-02-25T09:33:23.777Z,79.41
2023-02-25T09:34:23.769Z,78.90
2023-02-25T09:35:23.755Z,78.80
2023-02-25T09:36:23.742Z,78.80
2023-02-25T09:37:23.724Z,79.41
2023-02-25T09:38:23.711Z,78.69
2023-02-25T09:39:23.704Z,78.59
2023-02-25T09:40:23.688Z,78.86
2023-02-25T09:41:24.010Z,77.83
2023-02-25T09:42:23.661Z,77.69
2023-02-25T09:43:23.652Z,77.04
2023-02-25T09:44:23.636Z,76.31
2023-02-25T09:45:23.632Z,76.69
2023-02-25T09:46:23.604Z,75.04
2023-02-25T09:47:23.658Z,73.19
2023-02-25T09:48:23.608Z,73.91
2023-02-25T09:49:23.579Z,72.60
2023-02-25T09:50:23.562Z,74.46
2023-02-25T09:51:23.912Z,71.78
2023-02-25T09:52:23.528Z,71.34
2023-02-25T09:53:23.511Z,70.62
2023-02-25T09:54:23.508Z,71.13
2023-02-25T09:55:23.488Z,71.65
2023-02-25T09:56:23.480Z,70.79
2023-02-25T09:57:23.546Z,71.61
2023-02-25T09:58:23.451Z,73.33
2023-02-25T09:59:23.446Z,70.89
2023-02-25T10:00:23.427Z,70.69
2023-02-25T10:01:23.718Z,70.86
2023-02-25T10:02:23.562Z,72.40
2023-02-25T10:03:23.471Z,72.50
2023-02-25T10:04:23.412Z,71.47
2023-02-25T10:05:23.368Z,72.09
2023-02-25T10:06:23.348Z,71.13
2023-02-25T10:07:23.333Z,71.27
2023-02-25T10:08:23.324Z,71.88
2023-02-25T10:09:23.311Z,72.22
2023-02-25T10:10:23.305Z,73.02
2023-02-25T10:11:23.607Z,73.02
2023-02-25T10:12:23.268Z,72.78
2023-02-25T10:13:23.260Z,72.95
2023-02-25T10:14:23.255Z,73.02
2023-02-25T10:15:23.231Z,74.77
2023-02-25T10:16:23.254Z,74.87
2023-02-25T10:17:23.201Z,75.18
2023-02-25T10:18:23.190Z,75.80
2023-02-25T10:19:23.177Z,74.05
2023-02-25T10:20:23.187Z,75.21
2023-02-25T10:21:23.537Z,74.60
2023-02-25T10:22:23.139Z,73.95
2023-02-25T10:23:23.133Z,73.74
2023-02-25T10:24:23.124Z,74.84
2023-02-25T10:25:23.096Z,74.01
2023-02-25T10:26:23.092Z,75.01
2023-02-25T10:27:23.074Z,73.53
2023-02-25T10:28:23.058Z,73.74
2023-02-25T10:29:23.043Z,74.56
2023-02-25T10:30:23.033Z,74.43
2023-02-25T10:31:23.621Z,73.91
2023-02-25T10:32:23.352Z,74.12
2023-02-25T10:33:22.992Z,74.12
2023-02-25T10:34:22.987Z,74.18
2023-02-25T10:35:22.979Z,73.87
2023-02-25T10:36:22.980Z,73.98
2023-02-25T10:37:22.944Z,73.57
2023-02-25T10:38:22.938Z,72.95
2023-02-25T10:39:22.917Z,73.53
2023-02-25T10:40:22.912Z,72.40
2023-02-25T10:41:23.426Z,73.12
2023-02-25T10:42:22.880Z,72.91
2023-02-25T10:43:22.881Z,72.71
2023-02-25T10:44:22.852Z,73.91
2023-02-25T10:45:22.839Z,73.29
2023-02-25T10:46:22.915Z,74.53
2023-02-25T10:47:22.810Z,73.46
2023-02-25T10:48:22.811Z,75.21
2023-02-25T10:49:22.782Z,75.15
2023-02-25T10:50:27.553Z,75.04
2023-02-25T10:51:25.185Z,75.56
2023-02-25T10:52:22.752Z,75.28
2023-02-25T10:53:24.265Z,75.80
2023-02-25T10:54:22.721Z,75.80
2023-02-25T10:55:22.701Z,77.07
2023-02-25T10:56:22.695Z,78.52
2023-02-25T10:57:22.687Z,79.41
2023-02-25T10:58:22.666Z,80.94
2023-02-25T10:59:22.651Z,83.60
2023-02-25T11:00:22.641Z,84.30
2023-02-25T11:01:23.009Z,85.49
2023-02-25T11:02:22.660Z,87.96
2023-02-25T11:03:22.599Z,89.70
2023-02-25T11:04:22.590Z,90.99
2023-02-25T11:05:22.575Z,92.18
2023-02-25T11:06:23.348Z,93.37
2023-02-25T11:07:22.573Z,93.99
2023-02-25T11:09:22.529Z,94.92
2023-02-25T11:10:22.508Z,95.45
2023-02-25T11:11:22.948Z,95.76
2023-02-25T11:12:22.484Z,95.72
2023-02-25T11:13:22.469Z,95.61
2023-02-25T11:14:22.460Z,95.09
2023-02-25T11:15:25.359Z,94.84
2023-02-25T11:16:24.622Z,94.42
2023-02-25T11:17:22.421Z,94.32
2023-02-25T11:18:22.450Z,94.07
2023-02-25T11:19:22.398Z,93.49
2023-02-25T11:20:22.385Z,93.24
2023-02-25T11:21:22.772Z,92.82
2023-02-25T11:22:22.362Z,92.09
2023-02-25T11:23:22.372Z,92.09
2023-02-25T11:24:22.336Z,92.51
2023-02-25T11:25:22.340Z,92.19
2023-02-25T11:26:22.311Z,92.19
2023-02-25T11:27:22.295Z,92.57
2023-02-25T11:28:22.286Z,92.11
2023-02-25T11:29:22.271Z,91.76
2023-02-25T11:30:22.262Z,91.13
2023-02-25T11:31:22.781Z,90.68
2023-02-25T11:32:22.390Z,90.43
2023-02-25T11:33:22.222Z,89.77
2023-02-25T11:34:22.208Z,88.40
2023-02-25T11:35:22.193Z,85.77
2023-02-25T11:36:22.713Z,85.52
2023-02-25T11:37:22.173Z,84.91
2023-02-25T11:38:22.156Z,85.57
2023-02-25T11:39:22.169Z,86.85
2023-02-25T11:40:22.130Z,86.70
2023-02-25T11:41:22.584Z,86.43
2023-02-25T11:42:22.102Z,86.81
2023-02-25T11:44:22.078Z,85.49
2023-02-25T11:45:22.059Z,82.20
2023-02-25T11:46:22.489Z,79.84
2023-02-25T11:47:22.033Z,76.92
2023-02-25T11:48:22.021Z,71.44
2023-02-25T11:49:22.008Z,71.69
2023-02-25T11:50:21.993Z,71.82
2023-02-25T11:51:21.978Z,74.94
2023-02-25T11:52:21.968Z,72.82
2023-02-25T11:53:22.012Z,72.68
2023-02-25T11:54:21.980Z,69.27
2023-02-25T11:55:21.973Z,67.87
2023-02-25T11:56:22.153Z,69.43
2023-02-25T11:57:21.903Z,69.65
2023-02-25T11:58:21.889Z,68.04
2023-02-25T11:59:21.874Z,66.57
2023-02-25T12:00:21.863Z,69.12
2023-02-25T12:01:21.852Z,73.26
2023-02-25T12:02:21.845Z,72.61
2023-02-25T12:03:21.824Z,73.57
2023-02-25T12:04:21.810Z,75.11
2023-02-25T12:05:21.854Z,74.77
2023-02-25T12:06:22.175Z,75.32
2023-02-25T12:07:21.772Z,76.73
2023-02-25T12:08:21.758Z,78.97
2023-02-25T12:09:21.741Z,80.31
2023-02-25T12:10:21.735Z,81.31
2023-02-25T12:11:24.173Z,80.68
2023-02-25T12:12:21.703Z,77.81
2023-02-25T12:13:21.725Z,72.95
2023-02-25T12:14:21.677Z,71.00
2023-02-25T12:15:21.664Z,70.02
2023-02-25T12:16:21.978Z,67.15
2023-02-25T12:17:21.673Z,66.82
2023-02-25T12:18:21.624Z,63.10
2023-02-25T12:19:21.610Z,65.69
2023-02-25T12:20:21.599Z,68.56
2023-02-25T12:21:21.823Z,63.62
2023-02-25T12:22:21.573Z,64.41
2023-02-25T12:23:21.562Z,65.38
2023-02-25T12:24:21.558Z,61.24
2023-02-25T12:25:21.533Z,57.94
2023-02-25T12:26:21.525Z,60.26
2023-02-25T12:27:21.533Z,61.29
2023-02-25T12:28:21.497Z,63.45
2023-02-25T12:29:21.485Z,63.79
2023-02-25T12:30:21.480Z,66.14
2023-02-25T12:31:21.789Z,64.91
2023-02-25T12:32:21.490Z,67.37
2023-02-25T12:33:21.430Z,67.81
2023-02-25T12:34:22.820Z,66.20
2023-02-25T12:35:21.406Z,66.54
2023-02-25T12:36:21.390Z,67.15
2023-02-25T12:37:21.376Z,69.95
2023-02-25T12:38:21.365Z,67.62
2023-02-25T12:39:21.349Z,71.41
2023-02-25T12:40:21.339Z,68.37
2023-02-25T12:41:21.718Z,68.71
2023-02-25T12:42:21.354Z,67.92
2023-02-25T12:43:21.322Z,67.13
2023-02-25T12:44:21.284Z,67.88
2023-02-25T12:45:21.272Z,69.84
2023-02-25T12:46:21.258Z,70.35
2023-02-25T12:47:21.255Z,69.46
2023-02-25T12:48:21.232Z,69.70
2023-02-25T12:49:21.216Z,70.52
2023-02-25T12:50:21.210Z,70.31
2023-02-25T12:51:21.503Z,70.21
2023-02-25T12:52:21.194Z,69.18
2023-02-25T12:53:21.167Z,69.31
2023-02-25T12:54:21.152Z,70.24
2023-02-25T12:55:21.170Z,69.49
2023-02-25T12:56:21.129Z,70.21
2023-02-25T12:57:21.112Z,69.15